createdAt,value
2018-06-27T00:00:42.407Z,1001.82
2018-06-27T00:01:42.575Z,1001.82
2018-06-27T00:02:42.773Z,1001.82
2018-06-27T00:03:42.910Z,1001.82
2018-06-27T00:04:43.077Z,1001.83
2018-06-27T00:05:43.240Z,1001.84
2018-06-27T00:06:43.424Z,1001.77
2018-06-27T00:07:43.562Z,1001.75
2018-06-27T00:08:43.731Z,1001.76
2018-06-27T00:09:43.907Z,1001.76
2018-06-27T00:10:44.076Z,1001.77
2018-06-27T00:11:44.244Z,1001.80
2018-06-27T00:12:44.415Z,1001.79
2018-06-27T00:13:44.582Z,1001.79
2018-06-27T00:14:44.757Z,1001.75
2018-06-27T00:15:44.911Z,1001.75
2018-06-27T00:16:45.079Z,1001.77
2018-06-27T00:17:45.247Z,1001.75
2018-06-27T00:18:47.327Z,1001.72
2018-06-27T00:19:45.617Z,1001.76
2018-06-27T00:20:45.790Z,1001.71
2018-06-27T00:21:45.978Z,1001.72
2018-06-27T00:22:46.141Z,1001.71
2018-06-27T00:23:46.312Z,1001.71
2018-06-27T00:24:46.460Z,1001.74
2018-06-27T00:25:46.629Z,1001.79
2018-06-27T00:26:46.797Z,1001.74
2018-06-27T00:27:46.966Z,1001.78
2018-06-27T00:28:47.134Z,1001.74
2018-06-27T00:29:47.286Z,1001.72
2018-06-27T00:30:47.470Z,1001.70
2018-06-27T00:31:47.634Z,1001.70
2018-06-27T00:32:47.803Z,1001.70
2018-06-27T00:33:47.987Z,1001.66
2018-06-27T00:34:48.138Z,1001.70
2018-06-27T00:35:48.323Z,1001.71
2018-06-27T00:36:48.466Z,1001.69
2018-06-27T00:37:48.639Z,1001.70
2018-06-27T00:38:48.807Z,1001.71
2018-06-27T00:39:48.978Z,1001.65
2018-06-27T00:40:49.140Z,1001.63
2018-06-27T00:41:49.303Z,1001.63
2018-06-27T00:42:49.466Z,1001.69
2018-06-27T00:43:49.644Z,1001.65
2018-06-27T00:44:49.805Z,1001.63
2018-06-27T00:45:49.971Z,1001.67
2018-06-27T00:46:50.204Z,1001.72
2018-06-27T00:47:50.298Z,1001.70
2018-06-27T00:48:50.451Z,1001.72
2018-06-27T00:49:50.632Z,1001.72
2018-06-27T00:50:50.793Z,1001.68
2018-06-27T00:51:50.995Z,1001.72
2018-06-27T00:52:51.142Z,1001.69
2018-06-27T00:53:51.306Z,1001.65
2018-06-27T00:54:51.476Z,1001.66
2018-06-27T00:55:51.641Z,1001.67
2018-06-27T00:56:51.809Z,1001.64
2018-06-27T00:57:51.976Z,1001.58
2018-06-27T00:58:52.150Z,1001.52
2018-06-27T00:59:52.315Z,1001.52
2018-06-27T01:00:52.486Z,1001.56
2018-06-27T01:01:52.653Z,1001.54
2018-06-27T01:02:52.821Z,1001.53
2018-06-27T01:03:52.984Z,1001.48
2018-06-27T01:04:53.141Z,1001.55
2018-06-27T01:05:53.315Z,1001.54
2018-06-27T01:06:53.480Z,1001.54
2018-06-27T01:07:53.647Z,1001.50
2018-06-27T01:08:53.817Z,1001.50
2018-06-27T01:09:53.990Z,1001.52
2018-06-27T01:10:54.159Z,1001.51
2018-06-27T01:11:54.315Z,1001.50
2018-06-27T01:12:54.512Z,1001.48
2018-06-27T01:13:54.656Z,1001.49
2018-06-27T01:14:54.840Z,1001.48
2018-06-27T01:15:54.976Z,1001.48
2018-06-27T01:16:55.144Z,1001.44
2018-06-27T01:17:55.318Z,1001.45
2018-06-27T01:18:55.529Z,1001.48
2018-06-27T01:19:55.706Z,1001.44
2018-06-27T01:20:55.857Z,1001.46
2018-06-27T01:21:56.022Z,1001.45
2018-06-27T01:22:56.204Z,1001.44
2018-06-27T01:23:56.365Z,1001.44
2018-06-27T01:24:56.541Z,1001.48
2018-06-27T01:25:56.707Z,1001.43
2018-06-27T01:26:56.876Z,1001.42
2018-06-27T01:27:57.044Z,1001.41
2018-06-27T01:28:57.226Z,1001.38
2018-06-27T01:29:57.387Z,1001.40
2018-06-27T01:30:57.521Z,1001.48
2018-06-27T01:31:57.717Z,1001.42
2018-06-27T01:32:57.929Z,1001.41
2018-06-27T01:33:58.101Z,1001.44
2018-06-27T01:34:58.270Z,1001.38
2018-06-27T01:35:58.433Z,1001.41
2018-06-27T01:36:58.599Z,1001.41
2018-06-27T01:37:58.764Z,1001.45
2018-06-27T01:38:58.932Z,1001.45
2018-06-27T01:39:59.099Z,1001.38
2018-06-27T01:40:59.264Z,1001.38
2018-06-27T01:41:59.440Z,1001.41
2018-06-27T01:42:59.599Z,1001.41
2018-06-27T01:43:59.763Z,1001.42
2018-06-27T01:44:59.941Z,1001.42
2018-06-27T01:46:00.090Z,1001.43
2018-06-27T01:47:00.254Z,1001.39
2018-06-27T01:48:00.425Z,1001.42
2018-06-27T01:49:00.590Z,1001.42
2018-06-27T01:50:00.760Z,1001.41
2018-06-27T01:51:00.933Z,1001.40
2018-06-27T01:52:01.097Z,1001.42
2018-06-27T01:53:01.254Z,1001.43
2018-06-27T01:54:01.437Z,1001.42
2018-06-27T01:55:01.592Z,1001.46
2018-06-27T01:56:01.768Z,1001.45
2018-06-27T01:57:01.935Z,1001.44
2018-06-27T01:58:02.100Z,1001.44
2018-06-27T01:59:02.273Z,1001.49
2018-06-27T02:00:02.436Z,1001.47
2018-06-27T02:01:02.614Z,1001.49
2018-06-27T02:02:02.752Z,1001.50
2018-06-27T02:03:02.933Z,1001.51
2018-06-27T02:04:03.097Z,1001.49
2018-06-27T02:05:03.256Z,1001.53
2018-06-27T02:06:03.427Z,1001.52
2018-06-27T02:07:03.601Z,1001.54
2018-06-27T02:08:03.760Z,1001.51
2018-06-27T02:09:03.942Z,1001.54
2018-06-27T02:10:04.114Z,1001.53
2018-06-27T02:11:04.276Z,1001.49
2018-06-27T02:12:04.444Z,1001.49
2018-06-27T02:13:04.616Z,1001.48
2018-06-27T02:14:04.784Z,1001.55
2018-06-27T02:15:04.940Z,1001.53
2018-06-27T02:16:05.116Z,1001.52
2018-06-27T02:17:05.296Z,1001.52
2018-06-27T02:18:05.427Z,1001.52
2018-06-27T02:19:05.626Z,1001.54
2018-06-27T02:20:05.758Z,1001.51
2018-06-27T02:21:05.936Z,1001.51
2018-06-27T02:22:06.139Z,1001.55
2018-06-27T02:23:06.196Z,1001.52
2018-06-27T02:24:06.417Z,1001.52
2018-06-27T02:25:06.547Z,1001.49
2018-06-27T02:26:06.733Z,1001.49
2018-06-27T02:27:06.899Z,1001.54
2018-06-27T02:28:07.072Z,1001.49
2018-06-27T02:29:07.237Z,1001.53
2018-06-27T02:30:07.395Z,1001.51
2018-06-27T02:31:07.552Z,1001.57
2018-06-27T02:32:07.731Z,1001.57
2018-06-27T02:33:07.894Z,1001.55
2018-06-27T02:34:08.068Z,1001.56
2018-06-27T02:35:08.221Z,1001.52
2018-06-27T02:36:08.406Z,1001.52
2018-06-27T02:37:08.571Z,1001.56
2018-06-27T02:38:08.728Z,1001.48
2018-06-27T02:39:08.905Z,1001.52
2018-06-27T02:40:09.055Z,1001.55
2018-06-27T02:41:09.232Z,1001.55
2018-06-27T02:42:09.389Z,1001.56
2018-06-27T02:43:09.560Z,1001.58
2018-06-27T02:44:09.722Z,1001.55
2018-06-27T02:45:09.890Z,1001.57
2018-06-27T02:46:10.054Z,1001.58
2018-06-27T02:47:10.229Z,1001.60
2018-06-27T02:48:10.396Z,1001.63
2018-06-27T02:49:10.556Z,1001.65
2018-06-27T02:50:10.727Z,1001.68
2018-06-27T02:51:10.888Z,1001.67
2018-06-27T02:52:11.068Z,1001.66
2018-06-27T02:53:11.226Z,1001.66
2018-06-27T02:54:11.390Z,1001.69
2018-06-27T02:55:11.551Z,1001.69
2018-06-27T02:56:11.712Z,1001.73
2018-06-27T02:57:11.874Z,1001.67
2018-06-27T02:58:12.049Z,1001.68
2018-06-27T02:59:12.220Z,1001.66
2018-06-27T03:00:12.391Z,1001.66
2018-06-27T03:01:12.551Z,1001.66
2018-06-27T03:02:12.721Z,1001.69
2018-06-27T03:03:12.888Z,1001.65
2018-06-27T03:04:13.049Z,1001.65
2018-06-27T03:05:13.217Z,1001.65
2018-06-27T03:06:13.410Z,1001.68
2018-06-27T03:07:13.553Z,1001.66
2018-06-27T03:08:13.724Z,1001.69
2018-06-27T03:09:13.887Z,1001.73
2018-06-27T03:10:14.053Z,1001.73
2018-06-27T03:11:14.219Z,1001.75
2018-06-27T03:12:14.378Z,1001.77
2018-06-27T03:13:14.564Z,1001.75
2018-06-27T03:14:14.730Z,1001.77
2018-06-27T03:15:14.893Z,1001.75
2018-06-27T03:16:16.861Z,1001.75
2018-06-27T03:17:15.175Z,1001.72
2018-06-27T03:18:17.862Z,1001.75
2018-06-27T03:19:15.577Z,1001.75
2018-06-27T03:20:15.710Z,1001.76
2018-06-27T03:21:15.861Z,1001.74
2018-06-27T03:22:16.020Z,1001.76
2018-06-27T03:23:16.186Z,1001.72
2018-06-27T03:24:16.356Z,1001.75
2018-06-27T03:25:16.516Z,1001.78
2018-06-27T03:26:16.689Z,1001.75
2018-06-27T03:27:16.858Z,1001.75
2018-06-27T03:28:17.022Z,1001.79
2018-06-27T03:29:17.198Z,1001.75
2018-06-27T03:30:17.360Z,1001.77
2018-06-27T03:31:17.535Z,1001.80
2018-06-27T03:32:17.690Z,1001.78
2018-06-27T03:33:17.870Z,1001.79
2018-06-27T03:34:18.035Z,1001.86
2018-06-27T03:35:18.203Z,1001.88
2018-06-27T03:36:18.370Z,1001.85
2018-06-27T03:37:18.541Z,1001.86
2018-06-27T03:38:18.705Z,1001.88
2018-06-27T03:39:18.875Z,1001.85
2018-06-27T03:40:19.039Z,1001.81
2018-06-27T03:41:19.211Z,1001.77
2018-06-27T03:42:19.384Z,1001.79
2018-06-27T03:43:19.544Z,1001.82
2018-06-27T03:44:19.706Z,1001.80
2018-06-27T03:45:19.877Z,1001.84
2018-06-27T03:46:20.036Z,1001.83
2018-06-27T03:47:20.211Z,1001.83
2018-06-27T03:48:20.373Z,1001.86
2018-06-27T03:49:20.548Z,1001.90
2018-06-27T03:50:20.705Z,1001.86
2018-06-27T03:51:20.871Z,1001.84
2018-06-27T03:52:21.039Z,1001.87
2018-06-27T03:53:21.203Z,1001.89
2018-06-27T03:54:21.368Z,1001.89
2018-06-27T03:55:21.527Z,1001.86
2018-06-27T03:56:21.696Z,1001.81
2018-06-27T03:57:21.865Z,1001.85
2018-06-27T03:58:22.040Z,1001.83
2018-06-27T03:59:22.198Z,1001.88
2018-06-27T04:00:22.363Z,1001.85
2018-06-27T04:01:22.553Z,1001.84
2018-06-27T04:02:22.696Z,1001.84
2018-06-27T04:03:22.867Z,1001.80
2018-06-27T04:04:23.027Z,1001.79
2018-06-27T04:05:23.199Z,1001.81
2018-06-27T04:06:23.367Z,1001.85
2018-06-27T04:07:23.536Z,1001.82
2018-06-27T04:08:23.693Z,1001.81
2018-06-27T04:09:23.860Z,1001.84
2018-06-27T04:10:24.026Z,1001.80
2018-06-27T04:11:24.205Z,1001.79
2018-06-27T04:12:24.358Z,1001.82
2018-06-27T04:13:24.650Z,1001.82
2018-06-27T04:14:24.688Z,1001.81
2018-06-27T04:15:24.839Z,1001.77
2018-06-27T04:16:25.006Z,1001.80
2018-06-27T04:17:25.160Z,1001.86
2018-06-27T04:18:25.334Z,1001.87
2018-06-27T04:19:25.495Z,1001.86
2018-06-27T04:20:25.662Z,1001.87
2018-06-27T04:21:25.841Z,1001.91
2018-06-27T04:22:26.003Z,1001.89
2018-06-27T04:23:26.165Z,1001.90
2018-06-27T04:24:26.328Z,1001.92
2018-06-27T04:25:34.159Z,1001.95
2018-06-27T04:26:34.352Z,1001.93
2018-06-27T04:27:26.896Z,1001.95
2018-06-27T04:28:27.059Z,1001.96
2018-06-27T04:29:27.226Z,1001.97
2018-06-27T04:30:27.396Z,1001.92
2018-06-27T04:31:27.563Z,1001.87
2018-06-27T04:32:27.733Z,1001.88
2018-06-27T04:33:27.896Z,1001.88
2018-06-27T04:34:28.088Z,1001.90
2018-06-27T04:35:28.223Z,1001.90
2018-06-27T04:36:28.389Z,1001.87
2018-06-27T04:37:28.549Z,1001.90
2018-06-27T04:38:28.722Z,1001.92
2018-06-27T04:39:28.888Z,1001.88
2018-06-27T04:40:29.052Z,1001.85
2018-06-27T04:43:11.663Z,1001.85
2018-06-27T04:44:11.774Z,1001.89
2018-06-27T04:45:11.939Z,1001.89
2018-06-27T04:46:12.106Z,1001.87
2018-06-27T04:47:12.281Z,1001.88
2018-06-27T04:48:12.435Z,1001.92
2018-06-27T04:49:12.600Z,1001.96
2018-06-27T04:50:12.764Z,1001.95
2018-06-27T04:51:12.931Z,1001.94
2018-06-27T04:52:13.102Z,1001.91
2018-06-27T04:54:55.373Z,1001.99
2018-06-27T04:55:55.524Z,1001.97
2018-06-27T04:56:55.690Z,1002.00
2018-06-27T04:57:55.874Z,1002.03
2018-06-27T04:58:56.029Z,1002.05
2018-06-27T04:59:56.200Z,1002.00
2018-06-27T05:00:56.363Z,1001.95
2018-06-27T05:01:56.529Z,1002.00
2018-06-27T05:02:56.694Z,1002.00
2018-06-27T05:03:56.851Z,1001.99
2018-06-27T05:04:57.021Z,1001.95
2018-06-27T05:05:57.189Z,1001.97
2018-06-27T05:06:57.351Z,1001.99
2018-06-27T05:07:57.529Z,1002.01
2018-06-27T05:08:57.693Z,1002.04
2018-06-27T05:11:30.000Z,1002.00
2018-06-27T05:12:31.028Z,1002.00
2018-06-27T05:13:30.313Z,1002.01
2018-06-27T05:14:30.477Z,1002.00
2018-06-27T05:15:30.642Z,1001.99
2018-06-27T05:16:30.806Z,1001.94
2018-06-27T05:17:30.973Z,1001.92
2018-06-27T05:18:31.145Z,1001.96
2018-06-27T05:19:31.311Z,1001.97
2018-06-27T05:20:31.477Z,1001.95
2018-06-27T05:21:31.633Z,1001.99
2018-06-27T05:22:31.800Z,1001.98
2018-06-27T05:23:31.977Z,1001.95
2018-06-27T05:24:32.140Z,1001.93
2018-06-27T05:25:32.289Z,1001.91
2018-06-27T05:28:14.864Z,1001.88
2018-06-27T05:29:15.025Z,1001.90
2018-06-27T05:30:15.195Z,1001.91
2018-06-27T05:31:15.364Z,1001.88
2018-06-27T05:32:15.530Z,1001.89
2018-06-27T05:33:15.697Z,1001.89
2018-06-27T05:34:23.805Z,1001.91
2018-06-27T05:35:15.970Z,1001.94
2018-06-27T05:36:16.135Z,1001.93
2018-06-27T05:37:16.299Z,1001.93
2018-06-27T05:38:16.465Z,1001.92
2018-06-27T05:39:16.650Z,1001.92
2018-06-27T05:40:16.806Z,1001.98
2018-06-27T05:41:16.969Z,1001.96
2018-06-27T05:42:17.137Z,1001.97
2018-06-27T05:43:17.304Z,1001.98
2018-06-27T05:44:17.498Z,1001.99
2018-06-27T05:46:59.762Z,1002.07
2018-06-27T05:47:59.932Z,1002.12
2018-06-27T05:49:00.094Z,1002.08
2018-06-27T05:50:00.263Z,1002.14
2018-06-27T05:51:00.435Z,1002.15
2018-06-27T05:52:00.594Z,1002.13
2018-06-27T05:53:00.762Z,1002.15
2018-06-27T05:54:00.929Z,1002.14
2018-06-27T05:55:01.094Z,1002.11
2018-06-27T05:56:01.271Z,1002.07
2018-06-27T05:58:43.539Z,1002.02
2018-06-27T05:59:43.708Z,1002.14
2018-06-27T06:00:43.874Z,1002.08
2018-06-27T06:01:44.042Z,1002.09
2018-06-27T06:02:44.209Z,1002.11
2018-06-27T06:03:44.382Z,1002.10
2018-06-27T06:04:44.549Z,1002.08
2018-06-27T06:05:44.715Z,1002.06
2018-06-27T06:06:44.884Z,1002.16
2018-06-27T06:07:45.050Z,1002.08
2018-06-27T06:10:27.306Z,1002.11
2018-06-27T06:11:27.481Z,1002.13
2018-06-27T06:12:27.637Z,1002.14
2018-06-27T06:13:27.806Z,1002.08
2018-06-27T06:14:27.969Z,1002.09
2018-06-27T06:15:28.140Z,1002.07
2018-06-27T06:16:28.323Z,1002.10
2018-06-27T06:17:28.509Z,1002.05
2018-06-27T06:18:28.693Z,1002.06
2018-06-27T06:19:28.857Z,1002.03
2018-06-27T06:20:29.023Z,1002.08
2018-06-27T06:21:29.193Z,1002.11
2018-06-27T06:22:29.358Z,1002.11
2018-06-27T06:23:29.526Z,1002.07
2018-06-27T06:24:29.690Z,1002.08
2018-06-27T06:30:20.328Z,1001.99
2018-06-27T06:31:20.498Z,1001.99
2018-06-27T06:32:20.682Z,1002.00
2018-06-27T06:33:20.859Z,1001.95
2018-06-27T06:34:21.012Z,1002.00
2018-06-27T06:35:21.177Z,1002.00
2018-06-27T06:36:21.333Z,1002.02
2018-06-27T06:37:21.502Z,1001.97
2018-06-27T06:38:21.675Z,1002.00
2018-06-27T06:39:21.848Z,1001.99
2018-06-27T06:42:04.115Z,1001.98
2018-06-27T06:43:04.278Z,1001.99
2018-06-27T06:44:04.448Z,1001.98
2018-06-27T06:45:04.606Z,1001.98
2018-06-27T06:46:04.805Z,1002.00
2018-06-27T06:47:04.930Z,1002.00
2018-06-27T06:48:05.120Z,1002.02
2018-06-27T06:49:05.291Z,1002.00
2018-06-27T06:50:05.449Z,1001.97
2018-06-27T06:51:05.612Z,1001.98
2018-06-27T06:52:05.817Z,1001.94
2018-06-27T06:53:05.957Z,1001.94
2018-06-27T06:54:06.653Z,1001.97
2018-06-27T06:55:06.324Z,1001.95
2018-06-27T06:56:06.497Z,1001.94
2018-06-27T06:58:49.100Z,1001.98
2018-06-27T06:59:49.232Z,1001.93
2018-06-27T07:02:21.301Z,1001.92
2018-06-27T07:03:21.471Z,1001.97
2018-06-27T07:04:21.654Z,1001.96
2018-06-27T07:05:21.819Z,1002.01
2018-06-27T07:06:21.993Z,1001.97
2018-06-27T07:07:22.162Z,1001.98
2018-06-27T07:08:23.034Z,1001.95
2018-06-27T07:09:22.462Z,1001.93
2018-06-27T07:10:22.621Z,1001.90
2018-06-27T07:11:22.884Z,1001.94
2018-06-27T07:12:22.964Z,1001.98
2018-06-27T07:13:23.125Z,1001.96
2018-06-27T07:14:23.304Z,1001.93
2018-06-27T07:15:23.487Z,1001.93
2018-06-27T07:16:23.651Z,1001.94
2018-06-27T07:19:06.484Z,1002.01
2018-06-27T07:20:06.408Z,1002.00
2018-06-27T07:21:06.588Z,1001.96
2018-06-27T07:22:06.772Z,1001.99
2018-06-27T07:23:06.950Z,1001.96
2018-06-27T07:24:07.112Z,1001.92
2018-06-27T07:25:15.123Z,1001.98
2018-06-27T07:26:07.408Z,1002.00
2018-06-27T07:27:07.589Z,1001.91
2018-06-27T07:28:07.746Z,1001.91
2018-06-27T07:29:07.978Z,1001.88
2018-06-27T07:30:08.073Z,1001.94
2018-06-27T07:31:08.272Z,1001.96
2018-06-27T07:32:08.438Z,1001.93
2018-06-27T07:33:08.628Z,1001.92
2018-06-27T07:34:08.770Z,1001.96
2018-06-27T07:35:08.941Z,1001.95
2018-06-27T07:37:41.282Z,1001.90
2018-06-27T07:38:41.486Z,1001.89
2018-06-27T07:39:41.653Z,1001.83
2018-06-27T07:40:41.850Z,1001.85
2018-06-27T07:41:42.017Z,1001.91
2018-06-27T07:42:42.191Z,1001.79
2018-06-27T07:43:42.357Z,1001.83
2018-06-27T07:44:42.525Z,1001.81
2018-06-27T07:45:42.689Z,1001.78
2018-06-27T07:46:42.860Z,1001.77
2018-06-27T07:47:43.030Z,1001.77
2018-06-27T07:48:43.198Z,1001.75
2018-06-27T07:49:43.390Z,1001.73
2018-06-27T07:50:43.533Z,1001.73
2018-06-27T07:51:43.704Z,1001.73
2018-06-27T07:55:08.143Z,1001.69
2018-06-27T07:56:07.999Z,1001.74
2018-06-27T07:57:08.261Z,1001.75
2018-06-27T07:58:08.325Z,1001.76
2018-06-27T07:59:15.944Z,1001.78
2018-06-27T08:00:16.286Z,1001.76
2018-06-27T08:01:08.835Z,1001.78
2018-06-27T08:02:08.980Z,1001.80
2018-06-27T08:03:09.174Z,1001.79
2018-06-27T08:04:09.344Z,1001.79
2018-06-27T08:05:09.504Z,1001.78
2018-06-27T08:06:09.671Z,1001.81
2018-06-27T08:07:09.917Z,1001.72
2018-06-27T08:08:09.996Z,1001.69
2018-06-27T08:09:10.183Z,1001.66
2018-06-27T08:10:10.356Z,1001.68
2018-06-27T08:11:10.559Z,1001.65
2018-06-27T08:12:10.752Z,1001.67
2018-06-27T08:13:10.912Z,1001.65
2018-06-27T08:14:11.146Z,1001.66
2018-06-27T08:16:53.703Z,1001.66
2018-06-27T08:17:53.918Z,1001.64
2018-06-27T08:18:53.969Z,1001.65
2018-06-27T08:19:54.149Z,1001.68
2018-06-27T08:22:25.904Z,1001.66
2018-06-27T08:23:26.074Z,1001.69
2018-06-27T08:24:26.264Z,1001.67
2018-06-27T08:25:26.421Z,1001.69
2018-06-27T08:26:26.806Z,1001.64
2018-06-27T08:27:26.754Z,1001.70
2018-06-27T08:28:34.387Z,1001.69
2018-06-27T08:29:27.054Z,1001.66
2018-06-27T08:30:27.226Z,1001.64
2018-06-27T08:31:28.974Z,1001.70
2018-06-27T08:32:27.581Z,1001.65
2018-06-27T08:33:34.848Z,1001.62
2018-06-27T08:34:27.914Z,1001.68
2018-06-27T08:35:28.081Z,1001.65
2018-06-27T08:38:00.383Z,1001.68
2018-06-27T08:39:00.051Z,1001.69
2018-06-27T08:40:00.222Z,1001.65
2018-06-27T08:41:00.392Z,1001.70
2018-06-27T08:42:00.560Z,1001.70
2018-06-27T08:43:00.728Z,1001.72
2018-06-27T08:44:00.887Z,1001.76
2018-06-27T08:45:01.891Z,1001.75
2018-06-27T08:46:01.175Z,1001.77
2018-06-27T08:47:01.346Z,1001.70
2018-06-27T08:48:01.511Z,1001.76
2018-06-27T08:49:01.679Z,1001.75
2018-06-27T08:50:03.461Z,1001.74
2018-06-27T08:51:02.044Z,1001.67
2018-06-27T08:52:02.212Z,1001.71
2018-06-27T08:54:44.780Z,1001.73
2018-06-27T08:55:44.954Z,1001.67
2018-06-27T08:56:45.122Z,1001.80
2018-06-27T08:57:53.879Z,1001.72
2018-06-27T08:58:45.507Z,1001.70
2018-06-27T08:59:45.661Z,1001.73
2018-06-27T09:00:45.838Z,1001.73
2018-06-27T09:01:46.002Z,1001.73
2018-06-27T09:02:46.171Z,1001.80
2018-06-27T09:03:46.336Z,1001.72
2018-06-27T09:04:46.508Z,1001.73
2018-06-27T09:05:46.675Z,1001.68
2018-06-27T09:06:46.844Z,1001.64
2018-06-27T09:07:47.053Z,1001.66
2018-06-27T09:08:47.176Z,1001.62
2018-06-27T09:09:47.350Z,1001.69
2018-06-27T09:10:47.520Z,1001.65
2018-06-27T09:11:47.682Z,1001.64
2018-06-27T09:14:29.319Z,1001.62
2018-06-27T09:15:30.009Z,1001.60
2018-06-27T09:16:29.671Z,1001.59
2018-06-27T09:17:29.842Z,1001.56
2018-06-27T09:18:30.053Z,1001.65
2018-06-27T09:19:30.182Z,1001.65
2018-06-27T09:20:30.541Z,1001.68
2018-06-27T09:21:38.183Z,1001.69
2018-06-27T09:22:30.708Z,1001.71
2018-06-27T09:23:30.880Z,1001.67
2018-06-27T09:24:33.029Z,1001.70
2018-06-27T09:25:31.194Z,1001.64
2018-06-27T09:26:31.366Z,1001.65
2018-06-27T09:27:31.562Z,1001.66
2018-06-27T09:28:31.733Z,1001.58
2018-06-27T09:29:39.370Z,1001.64
2018-06-27T09:30:32.061Z,1001.67
2018-06-27T09:31:32.227Z,1001.58
2018-06-27T09:32:32.388Z,1001.58
2018-06-27T09:33:32.559Z,1001.61
2018-06-27T09:34:32.730Z,1001.58
2018-06-27T09:35:32.897Z,1001.57
2018-06-27T09:36:33.072Z,1001.56
2018-06-27T09:37:33.242Z,1001.53
2018-06-27T09:38:33.402Z,1001.58
2018-06-27T09:39:33.571Z,1001.50
2018-06-27T09:40:33.745Z,1001.45
2018-06-27T09:41:33.917Z,1001.54
2018-06-27T09:42:34.111Z,1001.47
2018-06-27T09:43:34.251Z,1001.48
2018-06-27T09:47:46.133Z,1001.36
2018-06-27T09:48:45.053Z,1001.44
2018-06-27T09:49:45.217Z,1001.41
2018-06-27T09:50:45.399Z,1001.44
2018-06-27T09:51:45.553Z,1001.44
2018-06-27T09:52:54.745Z,1001.42
2018-06-27T09:53:45.832Z,1001.43
2018-06-27T09:54:46.004Z,1001.38
2018-06-27T09:55:46.192Z,1001.39
2018-06-27T09:56:46.408Z,1001.42
2018-06-27T09:57:46.568Z,1001.40
2018-06-27T09:58:54.684Z,1001.39
2018-06-27T09:59:46.857Z,1001.36
2018-06-27T10:00:47.006Z,1001.33
2018-06-27T10:01:47.198Z,1001.36
2018-06-27T10:02:47.360Z,1001.35
2018-06-27T10:03:47.530Z,1001.36
2018-06-27T10:04:47.698Z,1001.31
2018-06-27T10:05:47.903Z,1001.36
2018-06-27T10:06:48.241Z,1001.27
2018-06-27T10:07:48.250Z,1001.29
2018-06-27T10:08:49.104Z,1001.24
2018-06-27T10:09:48.558Z,1001.23
2018-06-27T10:10:48.676Z,1001.28
2018-06-27T10:11:48.850Z,1001.26
2018-06-27T10:12:49.004Z,1001.32
2018-06-27T10:15:22.320Z,1001.19
2018-06-27T10:16:24.326Z,1001.19
2018-06-27T10:17:22.685Z,1001.22
2018-06-27T10:18:22.800Z,1001.26
2018-06-27T10:19:22.968Z,1001.26
2018-06-27T10:20:23.133Z,1001.24
2018-06-27T10:21:23.299Z,1001.25
2018-06-27T10:22:23.526Z,1001.21
2018-06-27T10:23:23.650Z,1001.16
2018-06-27T10:24:23.820Z,1001.20
2018-06-27T10:25:23.986Z,1001.14
2018-06-27T10:26:24.149Z,1001.21
2018-06-27T10:27:24.440Z,1001.21
2018-06-27T10:28:24.539Z,1001.24
2018-06-27T10:29:24.694Z,1001.17
2018-06-27T10:32:07.285Z,1001.20
2018-06-27T10:33:07.457Z,1001.16
2018-06-27T10:34:07.622Z,1001.18
2018-06-27T10:35:07.811Z,1001.21
2018-06-27T10:36:07.979Z,1001.19
2018-06-27T10:37:08.151Z,1001.22
2018-06-27T10:38:08.317Z,1001.20
2018-06-27T10:39:08.496Z,1001.16
2018-06-27T10:40:08.654Z,1001.16
2018-06-27T10:41:10.518Z,1001.18
2018-06-27T10:43:51.491Z,1001.07
2018-06-27T10:44:51.656Z,1001.12
2018-06-27T10:45:51.833Z,1001.11
2018-06-27T10:46:52.008Z,1001.14
2018-06-27T10:47:52.177Z,1001.19
2018-06-27T10:48:52.347Z,1001.11
2018-06-27T10:49:52.517Z,1001.17
2018-06-27T10:50:52.686Z,1001.24
2018-06-27T10:51:52.849Z,1001.16
2018-06-27T10:52:53.034Z,1001.23
2018-06-27T10:53:53.207Z,1001.21
2018-06-27T10:54:54.077Z,1001.20
2018-06-27T10:55:53.514Z,1001.22
2018-06-27T10:56:53.663Z,1001.27
2018-06-27T10:57:53.834Z,1001.20
2018-06-27T11:00:43.631Z,1001.17
2018-06-27T11:01:36.527Z,1001.21
2018-06-27T11:02:37.696Z,1001.15
2018-06-27T11:03:36.860Z,1001.17
2018-06-27T11:04:37.032Z,1001.19
2018-06-27T11:05:37.200Z,1001.21
2018-06-27T11:06:37.385Z,1001.18
2018-06-27T11:07:37.566Z,1001.25
2018-06-27T11:08:37.734Z,1001.20
2018-06-27T11:09:37.900Z,1001.21
2018-06-27T11:10:40.674Z,1001.24
2018-06-27T11:11:38.275Z,1001.20
2018-06-27T11:12:38.403Z,1001.18
2018-06-27T11:13:38.558Z,1001.21
2018-06-27T11:14:38.729Z,1001.27
2018-06-27T11:17:20.990Z,1001.18
2018-06-27T11:18:21.157Z,1001.14
2018-06-27T11:19:21.324Z,1001.17
2018-06-27T11:20:28.973Z,1001.22
2018-06-27T11:21:22.564Z,1001.13
2018-06-27T11:22:29.544Z,1001.05
2018-06-27T11:23:21.825Z,1001.00
2018-06-27T11:24:22.579Z,1001.06
2018-06-27T11:25:22.145Z,1001.13
2018-06-27T11:26:22.310Z,1001.20
2018-06-27T11:27:22.477Z,1001.19
2018-06-27T11:28:25.566Z,1001.23
2018-06-27T11:29:22.855Z,1001.14
2018-06-27T11:30:23.028Z,1001.14
2018-06-27T11:31:23.200Z,1001.14
2018-06-27T11:32:23.368Z,1001.19
2018-06-27T11:33:23.538Z,1001.21
2018-06-27T11:34:23.710Z,1001.09
2018-06-27T11:35:23.903Z,1001.13
2018-06-27T11:36:24.060Z,1001.10
2018-06-27T11:38:56.671Z,1001.15
2018-06-27T11:39:56.812Z,1001.19
2018-06-27T11:40:56.966Z,1001.07
2018-06-27T11:41:57.148Z,1001.08
2018-06-27T11:42:58.301Z,1001.20
2018-06-27T11:43:57.456Z,1001.10
2018-06-27T11:48:40.308Z,1001.12
2018-06-27T11:49:40.475Z,1001.10
2018-06-27T11:52:21.814Z,1001.07
2018-06-27T11:53:22.012Z,1001.18
2018-06-27T11:54:22.124Z,1001.08
2018-06-27T11:55:22.296Z,1001.09
2018-06-27T11:56:22.468Z,1001.14
2018-06-27T11:57:22.637Z,1001.04
2018-06-27T11:58:22.807Z,1001.02
2018-06-27T11:59:22.978Z,1001.06
2018-06-27T12:00:23.146Z,1001.00
2018-06-27T12:01:23.317Z,1001.02
2018-06-27T12:04:05.897Z,1001.02
2018-06-27T12:05:06.069Z,1000.96
2018-06-27T12:06:06.244Z,1000.98
2018-06-27T12:07:06.412Z,1001.00
2018-06-27T12:08:06.616Z,1001.01
2018-06-27T12:09:09.619Z,1001.07
2018-06-27T12:10:06.905Z,1001.12
2018-06-27T12:11:07.073Z,1001.20
2018-06-27T12:12:07.241Z,1001.11
2018-06-27T12:13:07.412Z,1001.06
2018-06-27T12:15:50.087Z,1000.99
2018-06-27T12:16:57.436Z,1000.95
2018-06-27T12:17:50.271Z,1000.96
2018-06-27T12:18:51.240Z,1000.90
2018-06-27T12:19:50.647Z,1001.00
2018-06-27T12:20:50.827Z,1000.94
2018-06-27T12:21:50.996Z,1000.89
2018-06-27T12:22:59.005Z,1000.94
2018-06-27T12:23:52.262Z,1000.89
2018-06-27T12:24:51.642Z,1000.81
2018-06-27T12:25:51.755Z,1000.74
2018-06-27T12:26:51.897Z,1000.82
2018-06-27T12:27:52.088Z,1000.96
2018-06-27T12:28:52.282Z,1000.90
2018-06-27T12:29:52.449Z,1000.98
2018-06-27T12:30:52.630Z,1000.82
2018-06-27T12:31:52.788Z,1000.87
2018-06-27T12:32:52.959Z,1000.88
2018-06-27T12:35:36.313Z,1000.83
2018-06-27T12:36:37.301Z,1000.87
2018-06-27T12:37:36.443Z,1000.90
2018-06-27T12:38:36.635Z,1000.77
2018-06-27T12:39:36.891Z,1000.79
2018-06-27T12:40:37.232Z,1000.84
2018-06-27T12:41:38.190Z,1000.82
2018-06-27T12:42:38.266Z,1000.74
2018-06-27T12:43:37.630Z,1000.75
2018-06-27T12:44:37.836Z,1000.77
2018-06-27T12:45:37.966Z,1000.87
2018-06-27T12:46:38.143Z,1000.83
2018-06-27T12:47:38.354Z,1000.75
2018-06-27T12:48:38.527Z,1000.72
2018-06-27T12:49:38.756Z,1000.75
2018-06-27T12:52:21.313Z,1000.70
2018-06-27T12:53:21.386Z,1000.85
2018-06-27T12:54:21.521Z,1000.67
2018-06-27T12:55:21.706Z,1000.86
2018-06-27T12:56:21.868Z,1000.88
2018-06-27T12:57:22.034Z,1000.83
2018-06-27T12:58:22.204Z,1000.82
2018-06-27T12:59:30.358Z,1000.86
2018-06-27T13:00:22.519Z,1000.75
2018-06-27T13:01:24.446Z,1000.76
2018-06-27T13:02:22.855Z,1000.62
2018-06-27T13:03:23.079Z,1000.63
2018-06-27T13:04:23.950Z,1000.72
2018-06-27T13:05:23.375Z,1000.66
2018-06-27T13:06:23.540Z,1000.69
2018-06-27T13:07:23.711Z,1000.69
2018-06-27T13:08:23.879Z,1000.68